Time;durP1;ratioP1;P1;durP2;ratioP2;P2;SDS_P1;SDS_P2;PMS_P1;PMS_P2;Temp;Humidity;BMP_temperature;BMP_pressure;BME280_temperature;BME280_humidity;BME280_pressure;Samples;Min_cycle;Max_cycle;Signal;HPM_P1;HPM_P2
2021/05/14 00:02:13;;;;;;;2.90;2.70;;;10.30;99.90;;;;;;5092534;28;20449;-77
2021/05/14 00:04:47;;;;;;;1.70;1.60;;;10.20;99.90;;;;;;5092953;28;20540;-76
2021/05/14 00:07:23;;;;;;;2.50;2.30;;;10.20;99.90;;;;;;5092720;28;21043;-76
2021/05/14 00:09:59;;;;;;;2.10;2.00;;;10.20;99.90;;;;;;5095230;28;20502;-76
2021/05/14 00:12:34;;;;;;;2.10;2.00;;;10.20;99.90;;;;;;5095051;28;20489;-76
2021/05/14 00:15:11;;;;;;;4.03;2.20;;;10.20;99.90;;;;;;5092069;28;20447;-76
2021/05/14 00:17:46;;;;;;;2.10;1.90;;;10.20;99.90;;;;;;5096710;28;20475;-77
2021/05/14 00:20:20;;;;;;;3.30;1.50;;;10.20;99.90;;;;;;5091515;28;20527;-77
2021/05/14 00:22:55;;;;;;;2.27;2.00;;;10.20;99.90;;;;;;5096682;28;20458;-76
2021/05/14 00:25:30;;;;;;;1.90;1.80;;;10.10;99.90;;;;;;5097230;28;20476;-77
2021/05/14 00:28:04;;;;;;;1.93;1.83;;;10.10;99.90;;;;;;5093179;28;20545;-75
2021/05/14 00:30:40;;;;;;;1.90;1.80;;;10.10;99.90;;;;;;5092272;28;20457;-76
2021/05/14 00:33:15;;;;;;;1.87;1.43;;;10.10;99.90;;;;;;5092306;28;20557;-76
2021/05/14 00:35:50;;;;;;;2.10;2.00;;;10.10;99.90;;;;;;5095561;28;20433;-77
2021/05/14 00:38:24;;;;;;;1.97;1.87;;;10.10;99.90;;;;;;5094093;28;20476;-76
2021/05/14 00:40:59;;;;;;;1.93;1.83;;;10.10;99.90;;;;;;5091567;28;20548;-78
2021/05/14 00:43:34;;;;;;;1.83;1.73;;;10.10;99.90;;;;;;5095169;28;20495;-77
2021/05/14 00:46:10;;;;;;;1.60;1.50;;;10.00;99.90;;;;;;5096896;28;21130;-75
2021/05/14 00:48:45;;;;;;;1.60;1.50;;;10.00;99.90;;;;;;5094769;28;20855;-76
2021/05/14 00:51:20;;;;;;;2.33;2.20;;;10.00;99.90;;;;;;5097528;28;20463;-77
2021/05/14 00:53:55;;;;;;;1.90;1.80;;;10.00;99.90;;;;;;5096380;28;20965;-79
2021/05/14 00:56:30;;;;;;;1.80;1.70;;;10.00;99.90;;;;;;5095681;28;20435;-77
2021/05/14 00:59:04;;;;;;;3.13;1.60;;;10.00;99.90;;;;;;5094941;28;20539;-76
2021/05/14 01:01:40;;;;;;;1.90;1.80;;;10.00;99.90;;;;;;5096742;28;20476;-77
2021/05/14 01:04:15;;;;;;;1.80;1.70;;;10.00;99.90;;;;;;5091589;28;20596;-76
2021/05/14 01:06:49;;;;;;;1.73;1.63;;;10.00;99.90;;;;;;5097557;28;20440;-76
2021/05/14 01:09:24;;;;;;;1.77;1.67;;;10.00;99.90;;;;;;5094355;28;20527;-77
2021/05/14 01:11:59;;;;;;;1.47;1.37;;;9.90;99.90;;;;;;5097799;28;20460;-74
2021/05/14 01:14:34;;;;;;;1.80;1.70;;;9.90;99.90;;;;;;5098156;28;20443;-78
2021/05/14 01:17:11;;;;;;;2.13;1.63;;;9.90;99.90;;;;;;5100901;28;20481;-73
2021/05/14 01:19:43;;;;;;;1.90;1.80;;;9.90;99.90;;;;;;5094769;28;20519;-78
2021/05/14 01:22:19;;;;;;;1.80;1.70;;;9.80;99.90;;;;;;5096980;28;20511;-79
2021/05/14 01:24:54;;;;;;;1.83;1.70;;;9.80;99.90;;;;;;5093502;28;20452;-78
2021/05/14 01:27:29;;;;;;;1.87;1.77;;;9.70;99.90;;;;;;5098265;28;20446;-79
2021/05/14 01:30:04;;;;;;;2.93;1.87;;;9.70;99.90;;;;;;5096049;28;20542;-78
2021/05/14 01:32:38;;;;;;;1.70;1.60;;;9.70;99.90;;;;;;5096798;28;20965;-81
2021/05/14 01:35:22;;;;;;;3.17;1.97;;;9.60;99.90;;;;;;5091947;28;20488;-78
2021/05/14 01:37:58;;;;;;;2.10;1.83;;;9.60;99.90;;;;;;5091990;28;20435;-77
2021/05/14 01:40:36;;;;;;;2.57;1.80;;;9.60;99.90;;;;;;5096937;28;20449;-82
2021/05/14 01:43:11;;;;;;;2.00;1.80;;;9.60;99.90;;;;;;5095462;28;20452;-77
2021/05/14 01:45:46;;;;;;;4.00;1.97;;;9.60;99.90;;;;;;5093541;28;20562;-77
2021/05/14 01:48:21;;;;;;;1.73;1.63;;;9.70;99.90;;;;;;5097854;28;20504;-77
2021/05/14 01:50:56;;;;;;;1.87;1.77;;;9.70;99.90;;;;;;5095931;28;20479;-79
2021/05/14 01:53:32;;;;;;;2.10;2.00;;;9.80;99.90;;;;;;5096740;28;20522;-78
2021/05/14 01:56:06;;;;;;;2.10;2.00;;;9.80;99.90;;;;;;5093338;28;20439;-79
2021/05/14 01:58:41;;;;;;;1.90;1.80;;;9.70;99.90;;;;;;5100891;28;20479;-77
2021/05/14 02:01:16;;;;;;;2.77;1.80;;;9.70;99.90;;;;;;5098341;28;20502;-78
2021/05/14 02:03:51;;;;;;;2.90;2.20;;;9.70;99.90;;;;;;5095794;28;20488;-77
2021/05/14 02:06:26;;;;;;;2.00;1.90;;;9.70;99.90;;;;;;5096391;28;20445;-79
2021/05/14 02:09:02;;;;;;;2.20;2.00;;;9.70;99.90;;;;;;5096211;28;20526;-77
2021/05/14 02:11:37;;;;;;;2.00;1.90;;;9.70;99.90;;;;;;5098527;28;20977;-80
2021/05/14 02:14:12;;;;;;;3.10;1.93;;;9.70;99.90;;;;;;5109890;28;20454;-81
2021/05/14 02:16:47;;;;;;;1.90;1.80;;;9.80;99.90;;;;;;5112447;28;20966;-81
2021/05/14 02:19:21;;;;;;;2.10;2.00;;;9.80;99.90;;;;;;5094551;28;20546;-79
2021/05/14 02:21:56;;;;;;;1.80;1.70;;;9.90;99.90;;;;;;5099286;28;21000;-79
2021/05/14 02:24:37;;;;;;;2.97;2.00;;;9.90;99.90;;;;;;5100648;28;20515;-81
2021/05/14 02:27:12;;;;;;;2.27;2.17;;;9.90;99.90;;;;;;5107301;28;20435;-86
2021/05/14 02:29:47;;;;;;;2.63;2.43;;;9.90;99.90;;;;;;5080710;28;21003;-78
2021/05/14 02:32:24;;;;;;;2.30;2.10;;;9.90;99.90;;;;;;5099272;28;20496;-85
2021/05/14 02:34:59;;;;;;;2.40;2.20;;;9.90;99.90;;;;;;5097729;28;20452;-79
2021/05/14 02:37:33;;;;;;;2.87;2.30;;;9.90;99.90;;;;;;5095710;28;20452;-86
2021/05/14 02:40:11;;;;;;;2.93;1.90;;;9.90;99.90;;;;;;5093485;28;20452;-78
2021/05/14 02:42:46;;;;;;;2.10;2.00;;;9.90;99.90;;;;;;5096704;28;20445;-84
2021/05/14 02:45:20;;;;;;;2.03;1.80;;;9.90;99.90;;;;;;5096549;28;21095;-78
2021/05/14 02:47:55;;;;;;;2.60;1.80;;;9.90;99.90;;;;;;5095443;28;20437;-78
2021/05/14 02:50:30;;;;;;;3.00;2.20;;;9.90;99.90;;;;;;5097804;28;20452;-78
2021/05/14 02:53:06;;;;;;;1.90;1.73;;;9.90;99.90;;;;;;5099396;28;20444;-77
2021/05/14 02:55:42;;;;;;;1.90;1.80;;;9.90;99.90;;;;;;5100318;28;20497;-78
2021/05/14 02:58:17;;;;;;;4.20;2.10;;;9.90;99.90;;;;;;5098293;28;20435;-79
2021/05/14 03:00:51;;;;;;;1.80;1.70;;;9.90;99.90;;;;;;5094696;28;21454;-78
2021/05/14 03:03:27;;;;;;;1.93;1.83;;;9.90;99.90;;;;;;5096877;28;20444;-79
2021/05/14 03:05:59;;;;;;;1.70;1.60;;;9.80;99.90;;;;;;5095037;28;20494;-78
2021/05/14 03:08:34;;;;;;;1.93;1.83;;;9.80;99.90;;;;;;5095090;28;21335;-79
2021/05/14 03:11:10;;;;;;;1.77;1.67;;;9.80;99.10;;;;;;5091849;28;20444;-77
2021/05/14 03:13:45;;;;;;;2.53;2.33;;;9.80;99.90;;;;;;5096672;28;20909;-78
2021/05/14 03:16:21;;;;;;;2.27;2.17;;;9.80;99.90;;;;;;5094407;28;20483;-77
2021/05/14 03:18:56;;;;;;;2.50;2.07;;;9.70;99.90;;;;;;5095451;28;20451;-78
2021/05/14 03:21:31;;;;;;;2.97;2.40;;;9.70;99.90;;;;;;5084686;28;21011;-80
2021/05/14 03:24:06;;;;;;;2.13;2.03;;;9.70;99.90;;;;;;5095841;28;20454;-77
2021/05/14 03:26:44;;;;;;;4.70;2.27;;;9.70;99.90;;;;;;5094229;28;20533;-80
2021/05/14 03:29:18;;;;;;;2.27;2.13;;;9.70;99.90;;;;;;5090456;28;20449;-77
2021/05/14 03:31:54;;;;;;;5.47;1.93;;;9.70;99.90;;;;;;5091757;28;20445;-78
2021/05/14 03:34:29;;;;;;;2.33;2.13;;;9.70;99.50;;;;;;5094492;28;21004;-79
2021/05/14 03:37:04;;;;;;;2.30;2.10;;;9.70;99.90;;;;;;5094179;28;20458;-78
2021/05/14 03:39:46;;;;;;;2.17;2.07;;;9.80;99.90;;;;;;5096244;28;20468;-77
2021/05/14 03:42:23;;;;;;;2.23;2.10;;;9.70;99.90;;;;;;5091640;28;20460;-77
2021/05/14 03:44:58;;;;;;;2.90;2.13;;;9.70;98.80;;;;;;5095129;28;20553;-78
2021/05/14 03:47:38;;;;;;;2.07;1.97;;;9.70;98.20;;;;;;5096062;28;20482;-79
2021/05/14 03:50:11;;;;;;;2.10;1.90;;;9.80;98.50;;;;;;5099095;28;20505;-79
2021/05/14 03:52:46;;;;;;;3.67;2.10;;;9.80;99.00;;;;;;5095305;28;20471;-77
2021/05/14 03:55:21;;;;;;;2.17;2.07;;;9.80;98.60;;;;;;5106855;28;20444;-78
2021/05/14 03:57:59;;;;;;;2.40;2.20;;;9.80;99.00;;;;;;5100061;28;20475;-77
2021/05/14 04:00:34;;;;;;;2.10;1.90;;;9.80;97.00;;;;;;5101864;28;20479;-76
2021/05/14 04:03:09;;;;;;;2.47;1.67;;;9.90;97.00;;;;;;5106165;28;20448;-77
2021/05/14 04:05:43;;;;;;;2.10;1.93;;;9.90;97.20;;;;;;5110318;28;20566;-76
2021/05/14 04:08:19;;;;;;;2.43;2.23;;;10.00;96.50;;;;;;5097446;28;20458;-77
2021/05/14 04:16:28;;;;;;;2.37;2.03;;;10.00;94.70;;;;;;5099257;28;20453;-77
2021/05/14 04:19:03;;;;;;;2.47;1.70;;;10.00;95.20;;;;;;5097459;28;20516;-77
2021/05/14 04:21:37;;;;;;;2.90;1.87;;;10.10;95.10;;;;;;5095995;28;20450;-77
2021/05/14 04:24:12;;;;;;;2.10;2.00;;;10.10;94.20;;;;;;5097388;28;20476;-74
2021/05/14 04:26:47;;;;;;;2.20;2.10;;;10.20;93.50;;;;;;5096626;28;20902;-79
2021/05/14 04:29:24;;;;;;;2.00;1.80;;;10.20;93.30;;;;;;5096244;28;20469;-75
2021/05/14 04:31:59;;;;;;;2.17;2.07;;;10.30;93.50;;;;;;5096396;28;20459;-75
2021/05/14 04:34:33;;;;;;;2.17;2.07;;;10.40;92.50;;;;;;5095456;28;20459;-76
2021/05/14 04:37:11;;;;;;;2.47;2.23;;;10.40;92.20;;;;;;5098797;28;20462;-75
2021/05/14 04:39:46;;;;;;;1.90;1.80;;;10.60;91.70;;;;;;5096549;28;20464;-76
2021/05/14 04:42:21;;;;;;;1.93;1.83;;;10.60;90.90;;;;;;5095191;28;20443;-77
2021/05/14 04:44:57;;;;;;;1.93;1.83;;;10.60;91.40;;;;;;5096493;28;20485;-76
2021/05/14 04:47:33;;;;;;;2.47;2.27;;;10.70;91.40;;;;;;5096435;28;20464;-81
2021/05/14 04:50:09;;;;;;;2.60;1.77;;;10.60;91.20;;;;;;5095516;28;20528;-76
2021/05/14 04:52:43;;;;;;;1.87;1.77;;;10.70;90.80;;;;;;5095430;28;20476;-80
2021/05/14 04:55:18;;;;;;;2.27;1.93;;;10.70;90.60;;;;;;5095343;28;20496;-75
2021/05/14 04:57:53;;;;;;;3.03;1.97;;;10.70;90.20;;;;;;5098919;28;20483;-74
2021/05/14 05:00:29;;;;;;;1.80;1.70;;;10.60;89.40;;;;;;5097649;28;20464;-77
2021/05/14 05:03:04;;;;;;;2.53;2.10;;;10.70;90.60;;;;;;5098955;28;20443;-75
2021/05/14 05:05:39;;;;;;;1.50;1.40;;;10.80;90.30;;;;;;5093819;28;20493;-75
2021/05/14 05:08:14;;;;;;;1.90;1.80;;;10.80;88.40;;;;;;5091012;28;20448;-79
2021/05/14 05:10:49;;;;;;;2.73;1.60;;;10.80;89.60;;;;;;5094982;28;20443;-76
2021/05/14 05:13:23;;;;;;;2.80;1.40;;;10.80;89.60;;;;;;5097569;28;20485;-81
2021/05/14 05:15:59;;;;;;;3.03;2.53;;;11.00;89.80;;;;;;5093776;28;20451;-75
2021/05/14 05:18:34;;;;;;;4.53;1.70;;;11.10;88.10;;;;;;5090917;28;20973;-86
2021/05/14 05:21:09;;;;;;;1.63;1.53;;;11.00;87.70;;;;;;5090920;28;20462;-76
2021/05/14 05:23:43;;;;;;;3.37;1.70;;;11.10;86.40;;;;;;5094656;28;20990;-77
2021/05/14 05:26:18;;;;;;;2.33;2.10;;;11.00;86.40;;;;;;5094820;28;20504;-75
2021/05/14 05:28:53;;;;;;;1.93;1.80;;;11.10;85.60;;;;;;5094574;28;20463;-75
2021/05/14 05:31:29;;;;;;;3.30;1.80;;;11.10;87.30;;;;;;5092042;28;20491;-78
2021/05/14 05:34:03;;;;;;;1.50;1.40;;;11.20;85.50;;;;;;5090860;28;20435;-75
2021/05/14 05:36:38;;;;;;;1.70;1.60;;;11.30;85.00;;;;;;5094339;28;20501;-76
2021/05/14 05:39:13;;;;;;;1.90;1.70;;;11.50;84.90;;;;;;5095662;28;20483;-76
2021/05/14 05:41:47;;;;;;;2.00;1.37;;;11.40;83.10;;;;;;5092898;28;20990;-79
2021/05/14 05:44:22;;;;;;;2.37;1.97;;;11.50;84.40;;;;;;5093913;28;21007;-75
2021/05/14 05:46:59;;;;;;;2.07;1.90;;;11.70;83.40;;;;;;5084828;28;20457;-75
2021/05/14 05:49:33;;;;;;;3.97;1.70;;;11.80;83.30;;;;;;5090791;28;20815;-75
2021/05/14 05:52:09;;;;;;;1.97;1.77;;;11.80;81.70;;;;;;5091986;28;20523;-75
2021/05/14 05:54:44;;;;;;;1.70;1.60;;;11.70;81.40;;;;;;5094034;28;20497;-76
2021/05/14 05:57:18;;;;;;;1.83;1.70;;;11.60;81.60;;;;;;5091324;28;20448;-76
2021/05/14 05:59:50;;;;;;;1.60;1.50;;;11.70;81.40;;;;;;5095637;28;20452;-75
2021/05/14 06:02:23;;;;;;;1.67;1.57;;;12.00;81.40;;;;;;5091538;28;20555;-79
2021/05/14 06:04:58;;;;;;;1.97;1.80;;;12.40;81.10;;;;;;5095622;28;20496;-76
2021/05/14 06:07:32;;;;;;;1.80;1.70;;;13.10;79.70;;;;;;5093296;28;20447;-78
2021/05/14 06:10:07;;;;;;;1.60;1.50;;;12.90;77.90;;;;;;5096514;28;20455;-75
2021/05/14 06:12:42;;;;;;;2.60;1.73;;;12.60;78.30;;;;;;5084086;28;20445;-74
2021/05/14 06:15:17;;;;;;;2.83;1.67;;;12.40;78.20;;;;;;5092940;28;20937;-76
2021/05/14 06:17:53;;;;;;;1.33;1.23;;;12.20;79.00;;;;;;5091394;28;20561;-75
2021/05/14 06:20:35;;;;;;;1.83;1.60;;;12.30;79.10;;;;;;5093164;28;20441;-75
2021/05/14 06:23:11;;;;;;;4.20;1.80;;;12.10;78.10;;;;;;5093306;28;20455;-74
2021/05/14 06:25:46;;;;;;;8.33;6.67;;;12.20;78.60;;;;;;5095824;28;20945;-76
2021/05/14 06:28:27;;;;;;;2.03;1.70;;;12.90;79.00;;;;;;5094322;28;20440;-80
2021/05/14 06:31:02;;;;;;;1.50;1.37;;;12.90;77.30;;;;;;5096008;28;20505;-75
2021/05/14 06:33:37;;;;;;;1.83;1.53;;;13.00;77.80;;;;;;5092417;28;20504;-76
2021/05/14 06:36:13;;;;;;;1.60;1.23;;;12.40;76.80;;;;;;5089861;28;20531;-76
2021/05/14 06:38:47;;;;;;;1.50;1.40;;;12.30;77.60;;;;;;5091741;28;20464;-77
2021/05/14 06:41:22;;;;;;;1.73;1.63;;;12.20;77.90;;;;;;5090148;28;20445;-78
2021/05/14 06:43:58;;;;;;;2.13;1.30;;;12.40;78.30;;;;;;5084960;28;20448;-76
2021/05/14 06:46:34;;;;;;;3.70;1.40;;;12.80;77.40;;;;;;5094083;28;20490;-80
2021/05/14 06:49:11;;;;;;;2.30;1.20;;;13.30;77.70;;;;;;5087430;28;20544;-75
2021/05/14 06:51:45;;;;;;;1.67;1.40;;;13.90;76.50;;;;;;5090519;28;20459;-79
2021/05/14 06:54:20;;;;;;;1.60;1.37;;;13.40;75.60;;;;;;5098996;28;20450;-76
2021/05/14 06:56:55;;;;;;;2.67;1.40;;;13.50;76.00;;;;;;5102798;28;20520;-75
2021/05/14 06:59:30;;;;;;;1.40;1.20;;;13.40;75.70;;;;;;5087735;28;20455;-75
2021/05/14 07:02:05;;;;;;;1.60;1.13;;;13.30;75.20;;;;;;5090088;28;20455;-75
2021/05/14 07:04:41;;;;;;;0.90;0.90;;;13.10;74.80;;;;;;5089678;28;20780;-75
2021/05/14 07:07:17;;;;;;;1.30;1.20;;;13.20;75.20;;;;;;5091236;28;20455;-74
2021/05/14 07:09:52;;;;;;;1.50;0.93;;;13.40;75.60;;;;;;5092233;28;20449;-76
2021/05/14 07:12:29;;;;;;;1.30;1.20;;;13.00;75.50;;;;;;5094392;28;20847;-77
2021/05/14 07:15:04;;;;;;;2.40;1.30;;;13.10;75.20;;;;;;5092418;28;20462;-74
2021/05/14 07:17:38;;;;;;;1.70;0.97;;;13.10;74.30;;;;;;5092422;28;20527;-75
2021/05/14 07:20:15;;;;;;;2.80;1.40;;;13.00;74.70;;;;;;5091743;28;20467;-77
2021/05/14 07:22:50;;;;;;;1.10;1.00;;;13.20;74.40;;;;;;5093181;28;20443;-78
2021/05/14 07:25:25;;;;;;;1.20;1.10;;;13.50;73.70;;;;;;5094442;28;20476;-78
2021/05/14 07:27:57;;;;;;;1.17;1.00;;;13.90;74.00;;;;;;5097112;28;20457;-77
2021/05/14 07:30:32;;;;;;;1.97;0.87;;;14.00;73.00;;;;;;5093238;28;20450;-76
2021/05/14 07:33:07;;;;;;;1.97;0.90;;;14.00;72.40;;;;;;5098179;28;20530;-78
2021/05/14 07:35:43;;;;;;;4.60;1.00;;;13.80;70.80;;;;;;5095262;28;20463;-76
2021/05/14 07:38:19;;;;;;;1.37;0.77;;;14.10;70.40;;;;;;5096933;28;20449;-76
2021/05/14 07:40:54;;;;;;;2.07;0.83;;;14.20;69.70;;;;;;5097263;28;20455;-76
2021/05/14 07:43:28;;;;;;;3.03;1.60;;;13.90;68.10;;;;;;5096034;28;20553;-74
2021/05/14 07:46:08;;;;;;;2.45;0.80;;;14.10;68.50;;;;;;5099726;28;20441;-80
2021/05/14 07:48:40;;;;;;;1.37;1.00;;;14.00;67.10;;;;;;5099942;28;20724;-83
2021/05/14 07:51:26;;;;;;;1.47;0.87;;;14.10;66.40;;;;;;5099318;28;20549;-83
2021/05/14 07:54:02;;;;;;;1.97;1.73;;;14.00;66.60;;;;;;5096983;28;20457;-81
2021/05/14 07:56:47;;;;;;;1.47;1.00;;;14.10;67.30;;;;;;5094103;28;20495;-82
2021/05/14 07:59:29;;;;;;;1.27;1.00;;;14.00;66.20;;;;;;5101618;28;20448;-82
2021/05/14 08:02:09;;;;;;;1.60;1.00;;;14.00;65.70;;;;;;5103944;28;20481;-81
2021/05/14 08:04:45;;;;;;;1.30;1.00;;;14.00;66.00;;;;;;5089108;28;20495;-81
2021/05/14 08:07:23;;;;;;;1.50;1.30;;;13.80;65.40;;;;;;5097375;28;20471;-83
2021/05/14 08:10:00;;;;;;;1.13;1.00;;;13.90;64.80;;;;;;5099721;28;20453;-80
2021/05/14 08:12:35;;;;;;;3.30;1.10;;;13.70;65.00;;;;;;5108891;28;20459;-81
2021/05/14 08:15:11;;;;;;;1.07;0.97;;;13.80;64.70;;;;;;5103996;28;20449;-82
2021/05/14 08:17:52;;;;;;;0.80;0.80;;;14.00;64.90;;;;;;5097872;28;20468;-88
2021/05/14 08:20:29;;;;;;;3.17;1.20;;;14.20;64.30;;;;;;5094401;28;20545;-86
2021/05/14 08:23:07;;;;;;;1.20;0.70;;;14.40;64.40;;;;;;5097474;28;20497;-81
2021/05/14 08:25:42;;;;;;;2.10;0.60;;;14.80;63.00;;;;;;5101138;28;20514;-78
2021/05/14 08:28:14;;;;;;;2.60;0.70;;;15.00;61.70;;;;;;5099078;28;20468;-84
2021/05/14 08:30:53;;;;;;;0.73;0.70;;;15.30;62.20;;;;;;5094389;28;20449;-77
2021/05/14 08:33:28;;;;;;;0.83;0.73;;;15.50;62.00;;;;;;5097078;28;20464;-79
2021/05/14 08:36:02;;;;;;;1.10;0.63;;;16.00;60.60;;;;;;5096225;28;20446;-79
2021/05/14 08:38:38;;;;;;;0.80;0.70;;;16.30;60.20;;;;;;5097235;28;20461;-77
2021/05/14 08:41:20;;;;;;;2.80;0.70;;;16.90;60.40;;;;;;5097428;28;20449;-79
2021/05/14 08:43:55;;;;;;;0.93;0.77;;;17.30;60.40;;;;;;5096419;28;20470;-79
2021/05/14 08:46:32;;;;;;;1.43;0.70;;;16.90;59.60;;;;;;5096108;28;20462;-79
2021/05/14 08:49:08;;;;;;;1.07;0.77;;;16.50;59.10;;;;;;5082422;28;20449;-80
2021/05/14 08:51:53;;;;;;;1.00;0.50;;;16.10;59.50;;;;;;5103110;28;20470;-82
2021/05/14 08:54:30;;;;;;;1.20;0.63;;;16.20;58.80;;;;;;5103263;28;20449;-83
2021/05/14 08:57:05;;;;;;;0.80;0.80;;;15.60;59.90;;;;;;5106900;28;20541;-82
2021/05/14 08:59:55;;;;;;;1.80;1.10;;;15.00;60.70;;;;;;5087744;28;20450;-80
2021/05/14 09:02:27;;;;;;;2.07;0.90;;;14.70;61.40;;;;;;5106835;28;20450;-83
2021/05/14 09:05:22;;;;;;;3.33;0.80;;;14.90;61.50;;;;;;5102993;28;20470;-81
2021/05/14 09:07:57;;;;;;;3.33;1.07;;;14.80;61.80;;;;;;5087449;28;20448;-81
2021/05/14 09:10:38;;;;;;;0.90;0.70;;;14.80;62.20;;;;;;5104879;28;20522;-82
2021/05/14 09:13:16;;;;;;;2.87;0.90;;;14.90;62.00;;;;;;5107790;28;20455;-81
2021/05/14 09:15:56;;;;;;;1.50;0.87;;;15.00;62.20;;;;;;5105909;28;20942;-82
2021/05/14 09:18:31;;;;;;;1.27;0.90;;;15.00;61.60;;;;;;5105200;28;20449;-82
2021/05/14 09:21:07;;;;;;;1.87;1.10;;;14.90;61.50;;;;;;5106522;28;20452;-81
2021/05/14 09:23:44;;;;;;;2.47;0.83;;;15.40;62.20;;;;;;5106243;28;20485;-83
2021/05/14 09:26:22;;;;;;;1.53;0.80;;;16.10;61.40;;;;;;5102363;28;20813;-80
2021/05/14 09:28:56;;;;;;;1.07;0.90;;;16.50;59.40;;;;;;5101962;28;20777;-82
2021/05/14 09:31:31;;;;;;;2.57;0.80;;;16.90;59.60;;;;;;5104982;28;20447;-80
2021/05/14 09:34:12;;;;;;;1.10;0.90;;;17.80;59.70;;;;;;5104236;28;20507;-84
2021/05/14 09:36:47;;;;;;;0.93;0.90;;;17.50;58.40;;;;;;5104119;28;20485;-81
2021/05/14 09:39:25;;;;;;;1.20;0.90;;;16.40;58.20;;;;;;5098227;28;20480;-81
2021/05/14 09:42:01;;;;;;;3.93;1.00;;;15.80;59.00;;;;;;5106049;28;20466;-81
2021/05/14 09:44:38;;;;;;;1.17;0.70;;;15.70;59.40;;;;;;5094601;28;20446;-79
2021/05/14 09:47:13;;;;;;;1.30;1.10;;;15.60;59.80;;;;;;5098758;28;20557;-79
2021/05/14 09:49:48;;;;;;;0.90;0.90;;;15.80;59.40;;;;;;5092723;28;20574;-81
2021/05/14 09:52:45;;;;;;;0.83;0.70;;;16.00;58.70;;;;;;5098738;28;20475;-85
2021/05/14 09:55:27;;;;;;;2.03;0.73;;;16.40;58.30;;;;;;5102182;28;20455;-86
2021/05/14 10:00:55;;;;;;;2.97;0.60;;;17.10;58.30;;;;;;5099418;28;20455;-85
2021/05/14 10:03:38;;;;;;;2.00;0.83;;;16.70;57.90;;;;;;5102974;28;20450;-87
2021/05/14 10:06:18;;;;;;;1.13;0.80;;;17.40;57.30;;;;;;5105362;28;20471;-86
2021/05/14 10:09:05;;;;;;;1.50;0.63;;;17.80;57.50;;;;;;5084250;28;20440;-86
2021/05/14 10:14:41;;;;;;;1.23;0.70;;;17.90;56.10;;;;;;5099109;28;20443;-85
2021/05/14 10:17:51;;;;;;;0.77;0.63;;;17.80;54.80;;;;;;5105392;28;20480;-85
2021/05/14 10:20:45;;;;;;;1.13;0.70;;;17.80;55.80;;;;;;5084364;28;20471;-86
2021/05/14 10:23:37;;;;;;;0.70;0.60;;;18.90;55.20;;;;;;5111753;28;20528;-86
2021/05/14 10:26:51;;;;;;;0.83;0.53;;;18.00;54.80;;;;;;5104799;28;20462;-84
2021/05/14 10:29:43;;;;;;;0.90;0.70;;;19.10;55.00;;;;;;5106962;28;20455;-85
2021/05/14 10:32:40;;;;;;;1.00;0.70;;;19.30;52.50;;;;;;5106585;28;20443;-85
2021/05/14 10:35:17;;;;;;;0.80;0.67;;;18.80;53.20;;;;;;5101541;28;20512;-86
2021/05/14 10:38:21;;;;;;;1.27;0.87;;;18.20;54.20;;;;;;5103152;28;20466;-85
2021/05/14 10:41:02;;;;;;;1.43;0.80;;;17.70;54.80;;;;;;5097856;28;20506;-85
2021/05/14 10:44:03;;;;;;;1.80;1.23;;;17.40;55.10;;;;;;5105682;28;20478;-86
2021/05/14 10:46:41;;;;;;;1.20;0.80;;;17.30;54.90;;;;;;5110221;28;20470;-85
2021/05/14 10:49:27;;;;;;;0.90;0.70;;;16.70;55.40;;;;;;5109363;28;20447;-84
2021/05/14 10:52:14;;;;;;;2.30;0.80;;;17.50;55.00;;;;;;5111970;28;20535;-87
2021/05/14 10:55:00;;;;;;;1.07;0.73;;;17.10;54.50;;;;;;5109319;28;20448;-84
2021/05/14 10:58:10;;;;;;;3.07;1.00;;;17.40;54.30;;;;;;5101414;28;20491;-86
2021/05/14 11:00:57;;;;;;;1.37;0.83;;;18.60;54.30;;;;;;5099061;28;20888;-87
2021/05/14 11:06:43;;;;;;;0.90;0.90;;;18.20;53.30;;;;;;5115511;28;20474;-86
2021/05/14 11:09:27;;;;;;;0.77;0.70;;;18.20;53.10;;;;;;5112356;27;20523;-87
2021/05/14 11:12:14;;;;;;;3.43;0.70;;;17.50;53.50;;;;;;5115542;28;20468;-86
2021/05/14 11:14:57;;;;;;;1.53;1.43;;;17.50;54.40;;;;;;5111619;27;20461;-85
2021/05/14 11:17:33;;;;;;;0.90;0.60;;;17.90;53.30;;;;;;5108882;28;20493;-84
2021/05/14 11:20:28;;;;;;;0.60;0.60;;;17.70;53.20;;;;;;5098782;28;20548;-85
2021/05/14 11:23:17;;;;;;;1.10;0.63;;;17.40;53.20;;;;;;5108212;28;20451;-85
2021/05/14 11:25:58;;;;;;;1.37;0.77;;;16.80;53.40;;;;;;5107764;28;20468;-84
2021/05/14 11:28:46;;;;;;;4.93;0.80;;;16.90;52.10;;;;;;5104471;28;20467;-86
2021/05/14 11:31:38;;;;;;;0.77;0.60;;;16.90;53.70;;;;;;5104600;28;20456;-86
2021/05/14 11:34:22;;;;;;;1.93;0.80;;;16.60;52.90;;;;;;5104424;28;20462;-85
2021/05/14 11:37:06;;;;;;;1.63;1.00;;;16.70;53.80;;;;;;5104144;28;20450;-85
2021/05/14 11:39:50;;;;;;;1.00;0.47;;;17.10;53.60;;;;;;5083498;28;20958;-86
2021/05/14 11:42:28;;;;;;;0.80;0.47;;;17.30;51.30;;;;;;5105721;28;20489;-84
2021/05/14 11:45:14;;;;;;;0.70;0.70;;;17.00;52.20;;;;;;5101256;28;20470;-82
2021/05/14 11:47:54;;;;;;;0.60;0.60;;;17.60;52.50;;;;;;5102751;28;20481;-83
2021/05/14 11:50:38;;;;;;;1.03;0.50;;;18.60;52.00;;;;;;5106749;28;20474;-85
2021/05/14 11:53:16;;;;;;;1.27;0.53;;;17.40;50.30;;;;;;5065758;28;20439;-81
2021/05/14 11:55:58;;;;;;;0.83;0.63;;;17.30;51.30;;;;;;5082553;28;21113;-75
2021/05/14 11:58:42;;;;;;;2.33;0.53;;;18.10;52.00;;;;;;5098159;28;20458;-81
2021/05/14 12:01:17;;;;;;;5.40;0.70;;;18.60;51.50;;;;;;5100700;28;21023;-77
2021/05/14 12:03:59;;;;;;;1.17;1.07;;;18.90;51.50;;;;;;5100768;28;20448;-84
2021/05/14 12:06:37;;;;;;;1.63;0.70;;;18.30;51.30;;;;;;5098352;28;20475;-88
2021/05/14 12:09:17;;;;;;;0.93;0.70;;;18.40;51.50;;;;;;5097869;28;20474;-81
2021/05/14 12:12:29;;;;;;;0.80;0.50;;;18.40;50.70;;;;;;5106338;28;20476;-84
2021/05/14 12:15:27;;;;;;;0.80;0.80;;;18.80;50.90;;;;;;5099564;28;20478;-83
2021/05/14 12:18:16;;;;;;;1.23;0.70;;;18.70;51.10;;;;;;5041238;28;20501;-85
2021/05/14 12:20:53;;;;;;;1.40;0.70;;;18.20;51.80;;;;;;5101096;28;20456;-84
2021/05/14 12:23:48;;;;;;;2.03;0.70;;;18.30;51.80;;;;;;5104150;28;20478;-86
2021/05/14 12:26:25;;;;;;;1.83;0.87;;;18.40;52.10;;;;;;5108158;28;20467;-86
2021/05/14 12:29:02;;;;;;;2.40;0.63;;;19.00;51.20;;;;;;5098247;28;20489;-84
2021/05/14 12:31:38;;;;;;;0.90;0.40;;;18.90;49.30;;;;;;5093370;28;20458;-77
2021/05/14 12:34:15;;;;;;;4.00;0.47;;;19.20;49.80;;;;;;5082522;28;20487;-77
2021/05/14 12:36:55;;;;;;;1.47;0.70;;;19.60;48.90;;;;;;5095687;28;20543;-80
2021/05/14 12:39:31;;;;;;;2.13;0.50;;;18.60;48.40;;;;;;5097202;28;20455;-76
2021/05/14 12:42:07;;;;;;;1.60;0.60;;;19.10;49.50;;;;;;5098253;28;20444;-77
2021/05/14 12:44:47;;;;;;;1.53;0.63;;;19.40;49.00;;;;;;5096873;28;20475;-81
2021/05/14 12:47:23;;;;;;;0.70;0.60;;;19.60;48.90;;;;;;5095342;28;21277;-77
2021/05/14 12:50:02;;;;;;;0.63;0.60;;;19.50;49.30;;;;;;5094823;28;20454;-77
2021/05/14 12:52:40;;;;;;;1.93;1.80;;;19.30;49.30;;;;;;5096793;28;20534;-80
2021/05/14 12:55:20;;;;;;;0.70;0.60;;;18.60;49.10;;;;;;5094564;28;20623;-77
2021/05/14 12:58:04;;;;;;;1.87;0.60;;;19.10;49.30;;;;;;5091458;28;20567;-79
2021/05/14 13:00:42;;;;;;;1.07;0.50;;;19.40;49.10;;;;;;5096813;28;20460;-78
2021/05/14 13:03:28;;;;;;;0.67;0.50;;;19.30;48.60;;;;;;5095627;28;20465;-80
2021/05/14 13:06:03;;;;;;;0.60;0.60;;;18.40;47.80;;;;;;5096948;28;20474;-79
2021/05/14 13:08:38;;;;;;;0.67;0.40;;;19.30;48.90;;;;;;5090012;28;20528;-79
2021/05/14 13:11:11;;;;;;;0.70;0.50;;;19.40;48.10;;;;;;5100207;28;20462;-79
2021/05/14 13:13:44;;;;;;;0.60;0.43;;;18.70;48.40;;;;;;5094148;28;20447;-77
2021/05/14 13:16:20;;;;;;;0.83;0.40;;;18.60;48.90;;;;;;5094588;28;20436;-77
2021/05/14 13:18:55;;;;;;;1.50;0.50;;;18.30;49.00;;;;;;5092851;28;20498;-77
2021/05/14 13:21:30;;;;;;;0.70;0.57;;;18.30;49.30;;;;;;5096118;28;20435;-77
2021/05/14 13:24:05;;;;;;;0.60;0.50;;;18.10;49.40;;;;;;5078792;28;20479;-78
2021/05/14 13:26:40;;;;;;;0.60;0.50;;;17.50;49.00;;;;;;5096006;28;20469;-79
2021/05/14 13:29:12;;;;;;;0.93;0.60;;;17.70;49.30;;;;;;5094622;28;20462;-78
2021/05/14 13:31:48;;;;;;;0.87;0.67;;;17.30;49.50;;;;;;5093531;28;20467;-77
2021/05/14 13:34:23;;;;;;;2.40;0.60;;;17.10;49.50;;;;;;5095582;28;20562;-77
2021/05/14 13:36:55;;;;;;;0.67;0.67;;;17.60;51.20;;;;;;5097377;28;20490;-76
2021/05/14 13:39:29;;;;;;;0.80;0.40;;;17.70;50.30;;;;;;5095385;28;20540;-76
2021/05/14 13:42:05;;;;;;;2.03;0.80;;;17.80;49.60;;;;;;5095622;28;20464;-77
2021/05/14 13:44:40;;;;;;;1.13;0.60;;;18.30;49.90;;;;;;5093531;28;20542;-76
2021/05/14 13:47:15;;;;;;;1.60;0.60;;;18.30;49.40;;;;;;5096661;28;20509;-76
2021/05/14 13:49:50;;;;;;;0.63;0.50;;;18.20;49.00;;;;;;5092636;28;20511;-77
2021/05/14 13:52:25;;;;;;;6.17;0.60;;;18.20;49.10;;;;;;5097232;28;20497;-79
2021/05/14 13:54:59;;;;;;;0.50;0.30;;;18.40;49.50;;;;;;5088208;28;20562;-77
2021/05/14 13:57:34;;;;;;;1.83;0.50;;;18.80;49.00;;;;;;5089580;28;20534;-77